Main page
METAR-TAF:

METAR-TAF

Airports :

Siskiyou County Airport

Montague, California, United States

latitude: 41-46-53N, longitude: 122-28-05W, elevation: 2647 ft

Current weather observation

The report was made 1 hour and 1 minutes ago, at 12:53 UTC
Wind 3 mph from the South
Temperature 21°F
Humidity 86%
Pressure 30.13 in. Hg
Visibility: 10 miles
Clear sky

METAR: KSIY 271253Z AUTO 17003KT 10SM CLR M06/M08 A3013 RMK AO2 SLP227 T10561083

Time: 05:54 (13:54 UTC)


TAF: missing

Weather observations and forecasts of more than 4000 airports (METAR and TAF reports).

The available stations are represented by yellow and red dots on the map.

Hover mouse over dot to see the name of the station.

Then click to see weather observations and forecasts.

To change the map : click on the green buttons with a black cross to zoom in, on the green button with a dash to zoom out, or on the green arrows for adjacent maps.


METAR-TAF: